sensor_id;sensor_type;location;lat;lon;timestamp;P1;durP1;ratioP1;P2;durP2;ratioP2
23148;SDS011;11743;51.228;22.498;2022-09-14T00:00:22;9.75;;;7.38;;
23148;SDS011;11743;51.228;22.498;2022-09-14T00:00:44;10.63;;;7.57;;
23148;SDS011;11743;51.228;22.498;2022-09-14T00:01:24;10.30;;;7.95;;
23148;SDS011;11743;51.228;22.498;2022-09-14T00:01:49;9.98;;;7.43;;
23148;SDS011;11743;51.228;22.498;2022-09-14T00:02:13;10.02;;;7.57;;
23148;SDS011;11743;51.228;22.498;2022-09-14T00:02:38;11.05;;;7.65;;
23148;SDS011;11743;51.228;22.498;2022-09-14T00:03:05;12.43;;;7.70;;
23148;SDS011;11743;51.228;22.498;2022-09-14T00:03:28;11.07;;;7.72;;
23148;SDS011;11743;51.228;22.498;2022-09-14T00:03:51;10.13;;;7.47;;
23148;SDS011;11743;51.228;22.498;2022-09-14T00:04:24;8.68;;;7.47;;
23148;SDS011;11743;51.228;22.498;2022-09-14T00:04:47;8.55;;;7.35;;
23148;SDS011;11743;51.228;22.498;2022-09-14T00:05:09;11.05;;;7.72;;
23148;SDS011;11743;51.228;22.498;2022-09-14T00:05:32;9.73;;;7.60;;
23148;SDS011;11743;51.228;22.498;2022-09-14T00:06:02;11.43;;;7.82;;
23148;SDS011;11743;51.228;22.498;2022-09-14T00:06:25;9.95;;;7.53;;
23148;SDS011;11743;51.228;22.498;2022-09-14T00:06:55;10.60;;;7.93;;
23148;SDS011;11743;51.228;22.498;2022-09-14T00:07:17;11.18;;;7.70;;
23148;SDS011;11743;51.228;22.498;2022-09-14T00:07:41;10.93;;;8.05;;
23148;SDS011;11743;51.228;22.498;2022-09-14T00:08:03;11.68;;;8.10;;
23148;SDS011;11743;51.228;22.498;2022-09-14T00:08:32;9.65;;;7.85;;
23148;SDS011;11743;51.228;22.498;2022-09-14T00:08:56;10.32;;;8.23;;
23148;SDS011;11743;51.228;22.498;2022-09-14T00:09:23;10.32;;;8.38;;
23148;SDS011;11743;51.228;22.498;2022-09-14T00:09:49;10.00;;;8.45;;
23148;SDS011;11743;51.228;22.498;2022-09-14T00:10:13;11.55;;;8.60;;
23148;SDS011;11743;51.228;22.498;2022-09-14T00:10:47;10.55;;;8.63;;
23148;SDS011;11743;51.228;22.498;2022-09-14T00:11:13;11.02;;;7.97;;
23148;SDS011;11743;51.228;22.498;2022-09-14T00:11:36;10.23;;;8.00;;
23148;SDS011;11743;51.228;22.498;2022-09-14T00:12:01;10.27;;;8.43;;
23148;SDS011;11743;51.228;22.498;2022-09-14T00:12:26;9.73;;;8.70;;
23148;SDS011;11743;51.228;22.498;2022-09-14T00:12:48;9.95;;;8.55;;
23148;SDS011;11743;51.228;22.498;2022-09-14T00:13:13;13.68;;;8.90;;
23148;SDS011;11743;51.228;22.498;2022-09-14T00:13:36;12.57;;;8.93;;
23148;SDS011;11743;51.228;22.498;2022-09-14T00:14:00;10.80;;;8.60;;
23148;SDS011;11743;51.228;22.498;2022-09-14T00:14:24;11.02;;;8.30;;
23148;SDS011;11743;51.228;22.498;2022-09-14T00:14:48;12.60;;;8.52;;
23148;SDS011;11743;51.228;22.498;2022-09-14T00:15:18;10.30;;;8.45;;
23148;SDS011;11743;51.228;22.498;2022-09-14T00:15:42;10.70;;;8.85;;
23148;SDS011;11743;51.228;22.498;2022-09-14T00:16:18;10.93;;;9.05;;
23148;SDS011;11743;51.228;22.498;2022-09-14T00:16:44;12.77;;;8.98;;
23148;SDS011;11743;51.228;22.498;2022-09-14T00:17:07;11.85;;;8.73;;
23148;SDS011;11743;51.228;22.498;2022-09-14T00:17:29;11.60;;;8.77;;
23148;SDS011;11743;51.228;22.498;2022-09-14T00:17:51;10.50;;;8.85;;
23148;SDS011;11743;51.228;22.498;2022-09-14T00:18:13;11.40;;;9.00;;
23148;SDS011;11743;51.228;22.498;2022-09-14T00:18:36;11.13;;;8.82;;
23148;SDS011;11743;51.228;22.498;2022-09-14T00:19:02;12.45;;;8.80;;
23148;SDS011;11743;51.228;22.498;2022-09-14T00:19:28;13.10;;;9.23;;
23148;SDS011;11743;51.228;22.498;2022-09-14T00:19:53;11.95;;;9.00;;
23148;SDS011;11743;51.228;22.498;2022-09-14T00:20:16;11.10;;;9.00;;
23148;SDS011;11743;51.228;22.498;2022-09-14T00:20:39;10.77;;;9.07;;
23148;SDS011;11743;51.228;22.498;2022-09-14T00:21:01;10.93;;;9.25;;
23148;SDS011;11743;51.228;22.498;2022-09-14T00:21:28;10.85;;;9.18;;
23148;SDS011;11743;51.228;22.498;2022-09-14T00:21:55;12.27;;;9.18;;
23148;SDS011;11743;51.228;22.498;2022-09-14T00:22:19;10.10;;;8.80;;
23148;SDS011;11743;51.228;22.498;2022-09-14T00:22:41;11.98;;;8.98;;
23148;SDS011;11743;51.228;22.498;2022-09-14T00:23:03;13.98;;;9.38;;
23148;SDS011;11743;51.228;22.498;2022-09-14T00:23:25;13.27;;;8.77;;
23148;SDS011;11743;51.228;22.498;2022-09-14T00:23:47;11.88;;;8.98;;
23148;SDS011;11743;51.228;22.498;2022-09-14T00:24:09;10.98;;;8.85;;
23148;SDS011;11743;51.228;22.498;2022-09-14T00:24:35;10.77;;;9.00;;
23148;SDS011;11743;51.228;22.498;2022-09-14T00:24:58;12.32;;;9.55;;
23148;SDS011;11743;51.228;22.498;2022-09-14T00:25:23;13.07;;;10.10;;
23148;SDS011;11743;51.228;22.498;2022-09-14T00:25:46;13.98;;;9.60;;
23148;SDS011;11743;51.228;22.498;2022-09-14T00:26:11;11.57;;;9.05;;
23148;SDS011;11743;51.228;22.498;2022-09-14T00:26:38;11.55;;;8.88;;
23148;SDS011;11743;51.228;22.498;2022-09-14T00:27:01;11.43;;;9.27;;
23148;SDS011;11743;51.228;22.498;2022-09-14T00:27:27;12.48;;;9.57;;
23148;SDS011;11743;51.228;22.498;2022-09-14T00:27:49;11.55;;;9.45;;
23148;SDS011;11743;51.228;22.498;2022-09-14T00:28:11;10.65;;;8.93;;
23148;SDS011;11743;51.228;22.498;2022-09-14T00:28:41;11.90;;;8.90;;
23148;SDS011;11743;51.228;22.498;2022-09-14T00:29:04;12.30;;;9.35;;
23148;SDS011;11743;51.228;22.498;2022-09-14T00:29:28;11.07;;;8.88;;
23148;SDS011;11743;51.228;22.498;2022-09-14T00:29:51;11.60;;;9.68;;
23148;SDS011;11743;51.228;22.498;2022-09-14T00:30:13;11.00;;;9.13;;
23148;SDS011;11743;51.228;22.498;2022-09-14T00:30:39;12.20;;;9.73;;
23148;SDS011;11743;51.228;22.498;2022-09-14T00:31:03;12.88;;;9.73;;
23148;SDS011;11743;51.228;22.498;2022-09-14T00:31:26;13.77;;;9.57;;
23148;SDS011;11743;51.228;22.498;2022-09-14T00:31:49;18.77;;;9.50;;
23148;SDS011;11743;51.228;22.498;2022-09-14T00:32:14;15.50;;;9.85;;
23148;SDS011;11743;51.228;22.498;2022-09-14T00:32:36;12.77;;;9.32;;
23148;SDS011;11743;51.228;22.498;2022-09-14T00:33:00;14.63;;;9.32;;
23148;SDS011;11743;51.228;22.498;2022-09-14T00:33:23;13.35;;;9.82;;
23148;SDS011;11743;51.228;22.498;2022-09-14T00:33:51;12.10;;;9.63;;
23148;SDS011;11743;51.228;22.498;2022-09-14T00:34:14;12.55;;;9.95;;
23148;SDS011;11743;51.228;22.498;2022-09-14T00:34:37;12.63;;;10.02;;
23148;SDS011;11743;51.228;22.498;2022-09-14T00:35:00;12.88;;;10.00;;
23148;SDS011;11743;51.228;22.498;2022-09-14T00:35:22;12.38;;;9.70;;
23148;SDS011;11743;51.228;22.498;2022-09-14T00:35:48;13.35;;;9.38;;
23148;SDS011;11743;51.228;22.498;2022-09-14T00:36:45;12.82;;;10.40;;
23148;SDS011;11743;51.228;22.498;2022-09-14T00:37:10;13.02;;;9.95;;
23148;SDS011;11743;51.228;22.498;2022-09-14T00:37:35;12.88;;;9.15;;
23148;SDS011;11743;51.228;22.498;2022-09-14T00:37:57;13.90;;;9.85;;
23148;SDS011;11743;51.228;22.498;2022-09-14T00:38:20;13.80;;;9.40;;
23148;SDS011;11743;51.228;22.498;2022-09-14T00:38:47;12.00;;;9.63;;
23148;SDS011;11743;51.228;22.498;2022-09-14T00:39:09;12.60;;;10.10;;
23148;SDS011;11743;51.228;22.498;2022-09-14T00:39:32;13.82;;;9.98;;
23148;SDS011;11743;51.228;22.498;2022-09-14T00:39:56;12.00;;;9.20;;
23148;SDS011;11743;51.228;22.498;2022-09-14T00:40:18;12.98;;;9.15;;
23148;SDS011;11743;51.228;22.498;2022-09-14T00:40:43;11.48;;;9.73;;
23148;SDS011;11743;51.228;22.498;2022-09-14T00:41:20;11.40;;;9.77;;
23148;SDS011;11743;51.228;22.498;2022-09-14T00:41:45;12.70;;;9.63;;
23148;SDS011;11743;51.228;22.498;2022-09-14T00:42:09;12.40;;;9.50;;
23148;SDS011;11743;51.228;22.498;2022-09-14T00:42:36;12.40;;;9.55;;
23148;SDS011;11743;51.228;22.498;2022-09-14T00:43:00;13.43;;;9.77;;
23148;SDS011;11743;51.228;22.498;2022-09-14T00:43:49;12.18;;;10.05;;
23148;SDS011;11743;51.228;22.498;2022-09-14T00:44:59;13.07;;;10.18;;
23148;SDS011;11743;51.228;22.498;2022-09-14T00:45:28;14.00;;;10.10;;
23148;SDS011;11743;51.228;22.498;2022-09-14T00:45:51;13.60;;;10.07;;
23148;SDS011;11743;51.228;22.498;2022-09-14T00:46:13;12.82;;;9.52;;
23148;SDS011;11743;51.228;22.498;2022-09-14T00:47:02;12.85;;;10.23;;
23148;SDS011;11743;51.228;22.498;2022-09-14T00:47:24;12.32;;;10.02;;
23148;SDS011;11743;51.228;22.498;2022-09-14T00:47:53;11.98;;;9.98;;
23148;SDS011;11743;51.228;22.498;2022-09-14T00:48:21;12.60;;;9.68;;
23148;SDS011;11743;51.228;22.498;2022-09-14T00:48:49;13.02;;;10.23;;
23148;SDS011;11743;51.228;22.498;2022-09-14T00:49:23;13.35;;;10.55;;
23148;SDS011;11743;51.228;22.498;2022-09-14T00:49:55;12.73;;;9.40;;
23148;SDS011;11743;51.228;22.498;2022-09-14T00:50:19;14.07;;;10.57;;
23148;SDS011;11743;51.228;22.498;2022-09-14T00:50:43;13.90;;;10.07;;
23148;SDS011;11743;51.228;22.498;2022-09-14T00:51:05;11.75;;;9.73;;
23148;SDS011;11743;51.228;22.498;2022-09-14T00:51:28;11.00;;;9.80;;
23148;SDS011;11743;51.228;22.498;2022-09-14T00:52:29;12.65;;;10.23;;
23148;SDS011;11743;51.228;22.498;2022-09-14T00:52:59;13.13;;;10.57;;
23148;SDS011;11743;51.228;22.498;2022-09-14T00:53:21;13.40;;;10.75;;
23148;SDS011;11743;51.228;22.498;2022-09-14T00:53:45;13.13;;;10.75;;
23148;SDS011;11743;51.228;22.498;2022-09-14T00:54:08;13.88;;;10.90;;
23148;SDS011;11743;51.228;22.498;2022-09-14T00:54:31;15.52;;;10.48;;
23148;SDS011;11743;51.228;22.498;2022-09-14T00:55:03;13.18;;;10.10;;
23148;SDS011;11743;51.228;22.498;2022-09-14T00:55:28;14.00;;;10.07;;
23148;SDS011;11743;51.228;22.498;2022-09-14T00:55:50;13.18;;;10.80;;
23148;SDS011;11743;51.228;22.498;2022-09-14T00:56:14;13.63;;;10.45;;
23148;SDS011;11743;51.228;22.498;2022-09-14T00:56:38;13.88;;;10.70;;
23148;SDS011;11743;51.228;22.498;2022-09-14T00:57:01;14.63;;;10.73;;
23148;SDS011;11743;51.228;22.498;2022-09-14T00:57:26;13.10;;;10.68;;
23148;SDS011;11743;51.228;22.498;2022-09-14T00:57:52;12.40;;;10.18;;
23148;SDS011;11743;51.228;22.498;2022-09-14T00:58:15;12.10;;;10.05;;
23148;SDS011;11743;51.228;22.498;2022-09-14T00:58:38;13.68;;;10.57;;
23148;SDS011;11743;51.228;22.498;2022-09-14T00:59:04;14.35;;;10.90;;
23148;SDS011;11743;51.228;22.498;2022-09-14T00:59:33;14.57;;;11.10;;
23148;SDS011;11743;51.228;22.498;2022-09-14T00:59:59;13.00;;;10.88;;
23148;SDS011;11743;51.228;22.498;2022-09-14T01:00:25;14.85;;;10.50;;
23148;SDS011;11743;51.228;22.498;2022-09-14T01:00:51;14.40;;;11.07;;
23148;SDS011;11743;51.228;22.498;2022-09-14T01:01:16;14.05;;;11.35;;
23148;SDS011;11743;51.228;22.498;2022-09-14T01:01:39;13.32;;;11.05;;
23148;SDS011;11743;51.228;22.498;2022-09-14T01:02:04;17.95;;;11.13;;
23148;SDS011;11743;51.228;22.498;2022-09-14T01:02:27;15.18;;;10.90;;
23148;SDS011;11743;51.228;22.498;2022-09-14T01:02:49;14.20;;;10.60;;
23148;SDS011;11743;51.228;22.498;2022-09-14T01:03:11;16.10;;;11.15;;
23148;SDS011;11743;51.228;22.498;2022-09-14T01:03:34;14.13;;;11.30;;
23148;SDS011;11743;51.228;22.498;2022-09-14T01:03:57;13.57;;;10.98;;
23148;SDS011;11743;51.228;22.498;2022-09-14T01:04:19;15.30;;;11.02;;
23148;SDS011;11743;51.228;22.498;2022-09-14T01:04:42;12.38;;;10.52;;
23148;SDS011;11743;51.228;22.498;2022-09-14T01:05:05;13.23;;;11.02;;
23148;SDS011;11743;51.228;22.498;2022-09-14T01:05:36;12.95;;;10.77;;
23148;SDS011;11743;51.228;22.498;2022-09-14T01:08:20;13.10;;;10.48;;
23148;SDS011;11743;51.228;22.498;2022-09-14T01:11:11;12.52;;;10.75;;
23148;SDS011;11743;51.228;22.498;2022-09-14T01:12:39;12.48;;;10.68;;
23148;SDS011;11743;51.228;22.498;2022-09-14T01:13:22;13.10;;;11.32;;
23148;SDS011;11743;51.228;22.498;2022-09-14T01:14:52;12.20;;;10.65;;
23148;SDS011;11743;51.228;22.498;2022-09-14T01:15:44;14.20;;;11.02;;
23148;SDS011;11743;51.228;22.498;2022-09-14T01:17:05;12.65;;;11.00;;
23148;SDS011;11743;51.228;22.498;2022-09-14T01:18:44;15.25;;;11.50;;
23148;SDS011;11743;51.228;22.498;2022-09-14T01:19:31;14.27;;;11.43;;
23148;SDS011;11743;51.228;22.498;2022-09-14T01:21:32;13.82;;;11.25;;
23148;SDS011;11743;51.228;22.498;2022-09-14T01:22:12;12.10;;;10.80;;
23148;SDS011;11743;51.228;22.498;2022-09-14T01:22:48;12.85;;;11.35;;
23148;SDS011;11743;51.228;22.498;2022-09-14T01:23:29;13.77;;;11.27;;
23148;SDS011;11743;51.228;22.498;2022-09-14T01:24:19;13.82;;;11.15;;
23148;SDS011;11743;51.228;22.498;2022-09-14T01:25:15;13.82;;;11.48;;
23148;SDS011;11743;51.228;22.498;2022-09-14T01:27:45;13.50;;;11.32;;
23148;SDS011;11743;51.228;22.498;2022-09-14T01:28:10;14.68;;;11.45;;
23148;SDS011;11743;51.228;22.498;2022-09-14T01:29:48;15.55;;;11.57;;
23148;SDS011;11743;51.228;22.498;2022-09-14T01:30:21;14.63;;;11.85;;
23148;SDS011;11743;51.228;22.498;2022-09-14T01:30:44;14.32;;;11.52;;
23148;SDS011;11743;51.228;22.498;2022-09-14T01:31:10;14.13;;;12.00;;
23148;SDS011;11743;51.228;22.498;2022-09-14T01:31:50;14.38;;;12.00;;
23148;SDS011;11743;51.228;22.498;2022-09-14T01:32:37;14.35;;;11.45;;
23148;SDS011;11743;51.228;22.498;2022-09-14T01:33:45;14.25;;;11.55;;
23148;SDS011;11743;51.228;22.498;2022-09-14T01:35:18;21.50;;;12.00;;
23148;SDS011;11743;51.228;22.498;2022-09-14T01:35:50;14.45;;;11.68;;
23148;SDS011;11743;51.228;22.498;2022-09-14T01:36:15;15.43;;;12.07;;
23148;SDS011;11743;51.228;22.498;2022-09-14T01:36:44;15.13;;;11.40;;
23148;SDS011;11743;51.228;22.498;2022-09-14T01:37:32;15.88;;;11.95;;
23148;SDS011;11743;51.228;22.498;2022-09-14T01:38:08;14.55;;;11.93;;
23148;SDS011;11743;51.228;22.498;2022-09-14T01:39:04;13.20;;;11.80;;
23148;SDS011;11743;51.228;22.498;2022-09-14T01:39:29;15.55;;;12.23;;
23148;SDS011;11743;51.228;22.498;2022-09-14T01:40:06;16.02;;;12.45;;
23148;SDS011;11743;51.228;22.498;2022-09-14T01:40:43;15.68;;;12.73;;
23148;SDS011;11743;51.228;22.498;2022-09-14T01:41:10;14.73;;;12.52;;
23148;SDS011;11743;51.228;22.498;2022-09-14T01:41:35;15.52;;;12.35;;
23148;SDS011;11743;51.228;22.498;2022-09-14T01:41:58;14.40;;;11.88;;
23148;SDS011;11743;51.228;22.498;2022-09-14T01:42:22;16.23;;;12.25;;
23148;SDS011;11743;51.228;22.498;2022-09-14T01:43:00;15.55;;;12.85;;
23148;SDS011;11743;51.228;22.498;2022-09-14T01:43:58;14.40;;;11.85;;
23148;SDS011;11743;51.228;22.498;2022-09-14T01:44:29;17.02;;;12.55;;
23148;SDS011;11743;51.228;22.498;2022-09-14T01:44:56;15.43;;;11.90;;
23148;SDS011;11743;51.228;22.498;2022-09-14T01:45:24;15.85;;;12.15;;
23148;SDS011;11743;51.228;22.498;2022-09-14T01:46:04;14.73;;;12.07;;
23148;SDS011;11743;51.228;22.498;2022-09-14T01:46:35;15.63;;;12.63;;
23148;SDS011;11743;51.228;22.498;2022-09-14T01:47:08;16.08;;;12.30;;
23148;SDS011;11743;51.228;22.498;2022-09-14T01:47:59;17.45;;;12.40;;
23148;SDS011;11743;51.228;22.498;2022-09-14T01:48:30;15.02;;;12.27;;
23148;SDS011;11743;51.228;22.498;2022-09-14T01:49:03;16.55;;;12.48;;
23148;SDS011;11743;51.228;22.498;2022-09-14T01:50:05;14.80;;;12.38;;
23148;SDS011;11743;51.228;22.498;2022-09-14T01:50:40;16.60;;;12.45;;
23148;SDS011;11743;51.228;22.498;2022-09-14T01:51:10;15.85;;;12.60;;
23148;SDS011;11743;51.228;22.498;2022-09-14T01:51:42;14.63;;;12.50;;
23148;SDS011;11743;51.228;22.498;2022-09-14T01:52:11;14.88;;;12.32;;
23148;SDS011;11743;51.228;22.498;2022-09-14T01:52:45;15.37;;;12.33;;
23148;SDS011;11743;51.228;22.498;2022-09-14T01:53:46;15.50;;;12.13;;
23148;SDS011;11743;51.228;22.498;2022-09-14T01:54:22;15.68;;;12.68;;
23148;SDS011;11743;51.228;22.498;2022-09-14T01:54:58;15.80;;;12.85;;
23148;SDS011;11743;51.228;22.498;2022-09-14T01:55:26;17.40;;;13.13;;
23148;SDS011;11743;51.228;22.498;2022-09-14T01:55:55;15.30;;;12.75;;
23148;SDS011;11743;51.228;22.498;2022-09-14T01:56:50;16.10;;;13.05;;
23148;SDS011;11743;51.228;22.498;2022-09-14T01:57:25;15.27;;;12.38;;
23148;SDS011;11743;51.228;22.498;2022-09-14T01:58:48;18.63;;;13.68;;
23148;SDS011;11743;51.228;22.498;2022-09-14T01:59:19;17.67;;;13.60;;
23148;SDS011;11743;51.228;22.498;2022-09-14T01:59:49;16.17;;;13.48;;
23148;SDS011;11743;51.228;22.498;2022-09-14T02:00:31;16.67;;;14.73;;
23148;SDS011;11743;51.228;22.498;2022-09-14T02:00:55;17.63;;;14.00;;
23148;SDS011;11743;51.228;22.498;2022-09-14T02:01:27;15.23;;;13.43;;
23148;SDS011;11743;51.228;22.498;2022-09-14T02:02:25;17.33;;;14.07;;
23148;SDS011;11743;51.228;22.498;2022-09-14T02:03:00;17.70;;;14.38;;
23148;SDS011;11743;51.228;22.498;2022-09-14T02:03:39;16.33;;;14.25;;
23148;SDS011;11743;51.228;22.498;2022-09-14T02:04:07;16.67;;;13.98;;
23148;SDS011;11743;51.228;22.498;2022-09-14T02:05:22;17.65;;;14.68;;
23148;SDS011;11743;51.228;22.498;2022-09-14T02:05:55;18.58;;;14.98;;
23148;SDS011;11743;51.228;22.498;2022-09-14T02:06:22;15.93;;;14.07;;
23148;SDS011;11743;51.228;22.498;2022-09-14T02:06:50;17.13;;;14.48;;
23148;SDS011;11743;51.228;22.498;2022-09-14T02:07:12;16.48;;;14.63;;
23148;SDS011;11743;51.228;22.498;2022-09-14T02:07:38;18.70;;;14.45;;
23148;SDS011;11743;51.228;22.498;2022-09-14T02:08:03;20.15;;;14.80;;
23148;SDS011;11743;51.228;22.498;2022-09-14T02:08:31;17.45;;;14.43;;
23148;SDS011;11743;51.228;22.498;2022-09-14T02:08:57;18.90;;;15.27;;
23148;SDS011;11743;51.228;22.498;2022-09-14T02:09:23;18.45;;;14.88;;
23148;SDS011;11743;51.228;22.498;2022-09-14T02:09:49;20.30;;;15.30;;
23148;SDS011;11743;51.228;22.498;2022-09-14T02:10:14;18.42;;;14.57;;
23148;SDS011;11743;51.228;22.498;2022-09-14T02:10:37;18.95;;;15.13;;
23148;SDS011;11743;51.228;22.498;2022-09-14T02:11:02;16.92;;;15.00;;
23148;SDS011;11743;51.228;22.498;2022-09-14T02:11:24;17.80;;;15.05;;
23148;SDS011;11743;51.228;22.498;2022-09-14T02:11:50;16.20;;;14.48;;
23148;SDS011;11743;51.228;22.498;2022-09-14T02:12:11;17.13;;;15.15;;
23148;SDS011;11743;51.228;22.498;2022-09-14T02:12:34;18.45;;;14.88;;
23148;SDS011;11743;51.228;22.498;2022-09-14T02:13:00;18.27;;;15.23;;
23148;SDS011;11743;51.228;22.498;2022-09-14T02:13:26;17.73;;;15.65;;
23148;SDS011;11743;51.228;22.498;2022-09-14T02:13:48;18.05;;;15.13;;
23148;SDS011;11743;51.228;22.498;2022-09-14T02:14:15;19.85;;;16.20;;
23148;SDS011;11743;51.228;22.498;2022-09-14T02:14:47;18.08;;;15.43;;
23148;SDS011;11743;51.228;22.498;2022-09-14T02:15:31;18.83;;;15.52;;
23148;SDS011;11743;51.228;22.498;2022-09-14T02:16:07;18.33;;;15.32;;
23148;SDS011;11743;51.228;22.498;2022-09-14T02:17:03;18.77;;;16.20;;
23148;SDS011;11743;51.228;22.498;2022-09-14T02:17:55;16.25;;;14.55;;
23148;SDS011;11743;51.228;22.498;2022-09-14T02:19:24;17.33;;;15.40;;
23148;SDS011;11743;51.228;22.498;2022-09-14T02:20:04;19.13;;;16.02;;
23148;SDS011;11743;51.228;22.498;2022-09-14T02:20:57;19.90;;;15.38;;
23148;SDS011;11743;51.228;22.498;2022-09-14T02:21:34;20.70;;;16.13;;
23148;SDS011;11743;51.228;22.498;2022-09-14T02:22:28;18.13;;;15.40;;
23148;SDS011;11743;51.228;22.498;2022-09-14T02:23:19;19.38;;;16.92;;
23148;SDS011;11743;51.228;22.498;2022-09-14T02:24:00;20.80;;;16.27;;
23148;SDS011;11743;51.228;22.498;2022-09-14T02:24:37;21.20;;;16.42;;
23148;SDS011;11743;51.228;22.498;2022-09-14T02:25:02;19.60;;;16.13;;
23148;SDS011;11743;51.228;22.498;2022-09-14T02:25:34;19.83;;;16.23;;
23148;SDS011;11743;51.228;22.498;2022-09-14T02:26:20;18.67;;;15.55;;
23148;SDS011;11743;51.228;22.498;2022-09-14T02:26:50;19.48;;;16.55;;
23148;SDS011;11743;51.228;22.498;2022-09-14T02:27:14;19.20;;;16.05;;
23148;SDS011;11743;51.228;22.498;2022-09-14T02:27:36;19.95;;;16.30;;
23148;SDS011;11743;51.228;22.498;2022-09-14T02:28:03;18.85;;;16.50;;
23148;SDS011;11743;51.228;22.498;2022-09-14T02:28:28;19.23;;;16.35;;
23148;SDS011;11743;51.228;22.498;2022-09-14T02:28:59;17.52;;;15.25;;
23148;SDS011;11743;51.228;22.498;2022-09-14T02:29:25;19.27;;;16.15;;
23148;SDS011;11743;51.228;22.498;2022-09-14T02:29:48;19.50;;;16.20;;
23148;SDS011;11743;51.228;22.498;2022-09-14T02:30:10;20.50;;;15.80;;
23148;SDS011;11743;51.228;22.498;2022-09-14T02:30:51;19.42;;;16.45;;
23148;SDS011;11743;51.228;22.498;2022-09-14T02:33:43;22.08;;;16.60;;
23148;SDS011;11743;51.228;22.498;2022-09-14T02:35:22;20.70;;;17.35;;
23148;SDS011;11743;51.228;22.498;2022-09-14T02:35:54;21.83;;;17.35;;
23148;SDS011;11743;51.228;22.498;2022-09-14T02:39:38;17.60;;;14.95;;
23148;SDS011;11743;51.228;22.498;2022-09-14T02:41:03;20.83;;;16.48;;
23148;SDS011;11743;51.228;22.498;2022-09-14T02:43:24;18.52;;;15.55;;
23148;SDS011;11743;51.228;22.498;2022-09-14T02:47:31;17.55;;;15.65;;
23148;SDS011;11743;51.228;22.498;2022-09-14T02:49:32;18.05;;;15.05;;
23148;SDS011;11743;51.228;22.498;2022-09-14T02:50:42;18.63;;;15.60;;
23148;SDS011;11743;51.228;22.498;2022-09-14T02:52:28;21.30;;;17.17;;
23148;SDS011;11743;51.228;22.498;2022-09-14T02:54:34;19.42;;;15.68;;
23148;SDS011;11743;51.228;22.498;2022-09-14T02:55:17;19.73;;;16.00;;
23148;SDS011;11743;51.228;22.498;2022-09-14T02:55:50;19.25;;;15.60;;
23148;SDS011;11743;51.228;22.498;2022-09-14T02:56:17;17.08;;;14.80;;
23148;SDS011;11743;51.228;22.498;2022-09-14T02:56:40;18.85;;;15.55;;
23148;SDS011;11743;51.228;22.498;2022-09-14T02:57:05;18.13;;;14.82;;
23148;SDS011;11743;51.228;22.498;2022-09-14T02:57:27;18.77;;;15.40;;
23148;SDS011;11743;51.228;22.498;2022-09-14T02:57:59;17.83;;;15.30;;
23148;SDS011;11743;51.228;22.498;2022-09-14T02:58:23;17.55;;;15.70;;
23148;SDS011;11743;51.228;22.498;2022-09-14T02:58:54;19.67;;;16.38;;
23148;SDS011;11743;51.228;22.498;2022-09-14T02:59:16;18.75;;;15.77;;
23148;SDS011;11743;51.228;22.498;2022-09-14T02:59:40;22.45;;;16.45;;
23148;SDS011;11743;51.228;22.498;2022-09-14T03:00:03;19.67;;;15.85;;
23148;SDS011;11743;51.228;22.498;2022-09-14T03:00:26;19.00;;;15.95;;
23148;SDS011;11743;51.228;22.498;2022-09-14T03:00:49;20.42;;;15.30;;
23148;SDS011;11743;51.228;22.498;2022-09-14T03:01:15;21.55;;;16.52;;
23148;SDS011;11743;51.228;22.498;2022-09-14T03:01:40;18.27;;;15.57;;
23148;SDS011;11743;51.228;22.498;2022-09-14T03:02:05;20.58;;;16.30;;
23148;SDS011;11743;51.228;22.498;2022-09-14T03:02:27;18.77;;;15.90;;
23148;SDS011;11743;51.228;22.498;2022-09-14T03:02:50;19.35;;;16.20;;
23148;SDS011;11743;51.228;22.498;2022-09-14T03:03:17;21.98;;;16.63;;
23148;SDS011;11743;51.228;22.498;2022-09-14T03:03:43;20.98;;;16.25;;
23148;SDS011;11743;51.228;22.498;2022-09-14T03:04:05;20.80;;;16.80;;
23148;SDS011;11743;51.228;22.498;2022-09-14T03:04:40;19.65;;;16.55;;
23148;SDS011;11743;51.228;22.498;2022-09-14T03:05:04;22.67;;;16.85;;
23148;SDS011;11743;51.228;22.498;2022-09-14T03:05:26;18.80;;;16.33;;
23148;SDS011;11743;51.228;22.498;2022-09-14T03:05:49;21.77;;;16.65;;
23148;SDS011;11743;51.228;22.498;2022-09-14T03:06:11;22.10;;;16.38;;
23148;SDS011;11743;51.228;22.498;2022-09-14T03:06:34;18.70;;;16.13;;
23148;SDS011;11743;51.228;22.498;2022-09-14T03:07:01;21.15;;;16.27;;
23148;SDS011;11743;51.228;22.498;2022-09-14T03:07:23;21.23;;;16.40;;
23148;SDS011;11743;51.228;22.498;2022-09-14T03:07:45;20.30;;;15.75;;
23148;SDS011;11743;51.228;22.498;2022-09-14T03:08:07;18.90;;;16.13;;
23148;SDS011;11743;51.228;22.498;2022-09-14T03:08:30;18.65;;;16.58;;
23148;SDS011;11743;51.228;22.498;2022-09-14T03:08:53;19.73;;;16.20;;
23148;SDS011;11743;51.228;22.498;2022-09-14T03:09:19;19.88;;;16.50;;
23148;SDS011;11743;51.228;22.498;2022-09-14T03:09:41;18.42;;;15.73;;
23148;SDS011;11743;51.228;22.498;2022-09-14T03:10:07;20.52;;;15.82;;
23148;SDS011;11743;51.228;22.498;2022-09-14T03:10:30;19.42;;;15.65;;
23148;SDS011;11743;51.228;22.498;2022-09-14T03:10:56;19.55;;;16.10;;
23148;SDS011;11743;51.228;22.498;2022-09-14T03:11:23;19.85;;;16.38;;
23148;SDS011;11743;51.228;22.498;2022-09-14T03:11:45;20.77;;;16.85;;
23148;SDS011;11743;51.228;22.498;2022-09-14T03:12:07;20.23;;;16.73;;
23148;SDS011;11743;51.228;22.498;2022-09-14T03:12:29;19.77;;;16.30;;
23148;SDS011;11743;51.228;22.498;2022-09-14T03:12:51;20.55;;;16.92;;
23148;SDS011;11743;51.228;22.498;2022-09-14T03:13:13;20.60;;;17.08;;
23148;SDS011;11743;51.228;22.498;2022-09-14T03:13:35;20.77;;;16.50;;
23148;SDS011;11743;51.228;22.498;2022-09-14T03:13:58;20.75;;;16.17;;
23148;SDS011;11743;51.228;22.498;2022-09-14T03:14:21;19.67;;;16.02;;
23148;SDS011;11743;51.228;22.498;2022-09-14T03:14:43;20.67;;;16.70;;
23148;SDS011;11743;51.228;22.498;2022-09-14T03:15:09;20.38;;;16.65;;
23148;SDS011;11743;51.228;22.498;2022-09-14T03:15:31;19.60;;;15.75;;
23148;SDS011;11743;51.228;22.498;2022-09-14T03:15:55;18.67;;;15.80;;
23148;SDS011;11743;51.228;22.498;2022-09-14T03:16:16;19.88;;;16.02;;
23148;SDS011;11743;51.228;22.498;2022-09-14T03:16:39;19.40;;;16.45;;
23148;SDS011;11743;51.228;22.498;2022-09-14T03:17:05;18.67;;;15.95;;
23148;SDS011;11743;51.228;22.498;2022-09-14T03:17:27;17.63;;;15.20;;
23148;SDS011;11743;51.228;22.498;2022-09-14T03:17:56;18.90;;;16.13;;
23148;SDS011;11743;51.228;22.498;2022-09-14T03:18:18;19.00;;;15.30;;
23148;SDS011;11743;51.228;22.498;2022-09-14T03:18:44;20.58;;;16.33;;
23148;SDS011;11743;51.228;22.498;2022-09-14T03:19:07;20.83;;;16.00;;
23148;SDS011;11743;51.228;22.498;2022-09-14T03:19:34;20.05;;;16.10;;
23148;SDS011;11743;51.228;22.498;2022-09-14T03:19:57;20.58;;;16.10;;
23148;SDS011;11743;51.228;22.498;2022-09-14T03:20:22;21.67;;;15.98;;
23148;SDS011;11743;51.228;22.498;2022-09-14T03:20:46;20.58;;;16.17;;
23148;SDS011;11743;51.228;22.498;2022-09-14T03:21:09;20.83;;;16.77;;